Time,TemperatureF,DewpointF,PressureIn,WindDirection,WindDirectionDegrees,WindSpeedMPH,WindSpeedGustMPH,Humidity,HourlyPrecipIn,Conditions,Clouds,dailyrainin,SoftwareType,DateUTC
2013-08-31 07:46:00,65.1,56.2,29.88,SW,225,5.2,5.2,73,0.00,,,0.00,WeatherDisplay:10.37,2013-08-31 05:46:00,
2013-08-31 07:51:00,64.2,58.6,30.13,NE,45,2.3,2.3,82,0.00,,,0.00,WeatherDisplay:10.37,2013-08-31 05:51:00,
2013-08-31 07:56:00,64.2,58.3,30.13,North,0,3.5,3.5,81,0.00,,,0.00,WeatherDisplay:10.37,2013-08-31 05:56:00,
2013-08-31 08:01:00,64.4,58.4,30.13,WNW,292,3.5,3.5,81,0.00,,,0.00,WeatherDisplay:10.37,2013-08-31 06:01:00,
2013-08-31 08:07:00,64.4,58.4,30.13,West,270,3.5,3.5,81,0.00,,,0.00,WeatherDisplay:10.37,2013-08-31 06:07:00,
2013-08-31 08:12:00,64.4,58.4,30.13,WSW,248,2.3,2.3,81,0.00,,,0.00,WeatherDisplay:10.37,2013-08-31 06:12:00,
2013-08-31 08:17:00,64.4,58.1,30.13,ENE,68,5.8,5.8,80,0.00,,,0.00,WeatherDisplay:10.37,2013-08-31 06:17:00,
2013-08-31 08:22:00,64.6,58.3,30.13,ENE,68,6.9,6.9,80,0.00,,,0.00,WeatherDisplay:10.37,2013-08-31 06:22:00,
2013-08-31 08:27:00,64.4,58.1,30.15,ENE,68,2.3,2.4,80,0.00,,,0.00,WeatherDisplay:10.37,2013-08-31 06:27:00,
2013-08-31 08:32:00,64.4,58.1,30.15,North,0,3.5,3.5,80,0.00,,,0.00,WeatherDisplay:10.37,2013-08-31 06:32:00,
2013-08-31 08:37:00,64.4,58.1,30.15,North,0,3.3,3.3,80,0.00,,,0.00,WeatherDisplay:10.37,2013-08-31 06:37:00,
2013-08-31 08:42:00,64.2,57.9,30.15,WNW,292,3.5,3.5,80,0.00,,,0.00,WeatherDisplay:10.37,2013-08-31 06:42:00,
2013-08-31 08:47:00,64.2,57.9,30.16,NNE,22,4.6,4.6,80,0.00,,,0.00,WeatherDisplay:10.37,2013-08-31 06:47:00,
2013-08-31 08:52:00,64.2,57.9,30.16,WNW,292,8.1,8.1,80,0.00,,,0.00,WeatherDisplay:10.37,2013-08-31 06:52:00,
2013-08-31 08:57:00,64.4,58.1,30.16,East,90,4.3,4.3,80,0.00,,,0.00,WeatherDisplay:10.37,2013-08-31 06:57:00,
2013-08-31 09:02:00,64.6,57.9,30.16,West,270,5.8,5.8,79,0.00,,,0.00,WeatherDisplay:10.37,2013-08-31 07:02:00,
2013-08-31 09:07:00,64.8,58.1,30.16,NNE,22,4.6,4.6,79,0.00,,,0.00,WeatherDisplay:10.37,2013-08-31 07:07:00,
2013-08-31 09:12:00,64.9,58.3,30.16,North,0,2.3,2.4,79,0.00,,,0.00,WeatherDisplay:10.37,2013-08-31 07:12:00,
2013-08-31 09:17:00,64.8,58.1,30.16,NW,315,3.5,3.5,79,0.00,,,0.00,WeatherDisplay:10.37,2013-08-31 07:17:00,
2013-08-31 09:22:00,64.8,58.1,30.16,North,0,4.6,4.6,79,0.00,,,0.00,WeatherDisplay:10.37,2013-08-31 07:22:00,
2013-08-31 09:27:00,64.6,57.9,30.17,NW,315,4.6,4.6,79,0.00,,,0.00,WeatherDisplay:10.37,2013-08-31 07:27:00,
2013-08-31 09:32:00,64.4,57.7,30.17,NE,45,4.6,4.6,79,0.00,,,0.00,WeatherDisplay:10.37,2013-08-31 07:32:00,
2013-08-31 09:37:00,64.4,57.4,30.17,WNW,292,3.5,3.5,78,0.00,,,0.00,WeatherDisplay:10.37,2013-08-31 07:37:00,
2013-08-31 09:42:00,64.6,57.6,30.17,NE,45,3.2,3.2,78,0.00,,,0.00,WeatherDisplay:10.37,2013-08-31 07:42:00,
2013-08-31 09:47:00,64.6,57.6,30.18,NE,45,6.9,6.9,78,0.00,,,0.00,WeatherDisplay:10.37,2013-08-31 07:47:00,
2013-08-31 09:52:00,64.6,57.2,30.18,NNW,338,2.3,2.6,77,0.00,,,0.00,WeatherDisplay:10.37,2013-08-31 07:52:00,
2013-08-31 09:57:00,64.6,56.8,30.18,East,90,6.9,6.9,76,0.00,,,0.00,WeatherDisplay:10.37,2013-08-31 07:57:00,
2013-08-31 10:02:00,64.6,56.8,30.18,NW,315,5.8,5.8,76,0.00,,,0.00,WeatherDisplay:10.37,2013-08-31 08:02:00,
2013-08-31 10:07:00,64.4,56.7,30.18,NW,315,4.6,4.6,76,0.00,,,0.00,WeatherDisplay:10.37,2013-08-31 08:07:00,
2013-08-31 10:12:00,64.4,56.7,30.18,NNE,22,5.8,5.8,76,0.00,,,0.00,WeatherDisplay:10.37,2013-08-31 08:12:00,
2013-08-31 10:17:00,64.6,56.5,30.18,WNW,292,4.6,4.6,75,0.00,,,0.00,WeatherDisplay:10.37,2013-08-31 08:17:00,
2013-08-31 10:22:00,65.3,57.2,30.18,NNW,338,6.3,6.3,75,0.00,,,0.00,WeatherDisplay:10.37,2013-08-31 08:22:00,
2013-08-31 10:27:00,65.8,56.9,30.19,NNE,22,4.6,4.6,73,0.00,,,0.00,WeatherDisplay:10.37,2013-08-31 08:27:00,
2013-08-31 10:32:00,66.6,56.9,30.19,North,0,6.9,6.9,71,0.00,,,0.00,WeatherDisplay:10.37,2013-08-31 08:32:00,
2013-08-31 10:37:00,66.2,56.5,30.19,NNE,22,6.9,6.9,71,0.00,,,0.00,WeatherDisplay:10.37,2013-08-31 08:37:00,
2013-08-31 10:42:00,66.2,56.5,30.19,NNW,338,3.5,3.5,71,0.00,,,0.00,WeatherDisplay:10.37,2013-08-31 08:42:00,
2013-08-31 10:47:00,66.2,56.5,30.20,North,0,4.6,4.6,71,0.00,,,0.00,WeatherDisplay:10.37,2013-08-31 08:47:00,
2013-08-31 10:52:00,67.1,57.0,30.20,NNW,338,1.1,2.9,70,0.00,,,0.00,WeatherDisplay:10.37,2013-08-31 08:52:00,
2013-08-31 10:57:00,67.3,56.8,30.20,NNE,22,5.8,5.8,69,0.00,,,0.00,WeatherDisplay:10.37,2013-08-31 08:57:00,
2013-08-31 11:02:00,68.2,56.8,30.20,NW,315,4.6,4.6,67,0.00,,,0.00,WeatherDisplay:10.37,2013-08-31 09:02:00,
2013-08-31 11:07:00,68.4,57.0,30.21,NNE,22,2.3,3.6,67,0.00,,,0.00,WeatherDisplay:10.37,2013-08-31 09:07:00,
2013-08-31 11:12:00,68.4,55.3,30.21,West,270,5.9,5.9,63,0.00,,,0.00,WeatherDisplay:10.37,2013-08-31 09:12:00,
2013-08-31 11:17:00,68.4,55.7,30.21,South,180,2.3,3.7,64,0.00,,,0.00,WeatherDisplay:10.37,2013-08-31 09:17:00,
2013-08-31 11:22:00,68.4,54.8,30.21,SW,225,3.5,3.5,62,0.00,,,0.00,WeatherDisplay:10.37,2013-08-31 09:22:00,
2013-08-31 11:27:00,68.4,54.8,30.20,NNW,338,4.6,4.6,62,0.00,,,0.00,WeatherDisplay:10.37,2013-08-31 09:27:00,
2013-08-31 11:32:00,68.4,54.8,30.20,WSW,248,6.9,6.9,62,0.00,,,0.00,WeatherDisplay:10.37,2013-08-31 09:32:00,
2013-08-31 11:37:00,68.0,54.9,30.20,North,0,9.2,9.2,63,0.00,,,0.00,WeatherDisplay:10.37,2013-08-31 09:37:00,
2013-08-31 11:42:00,67.5,54.4,30.20,WSW,248,11.5,11.5,63,0.00,,,0.00,WeatherDisplay:10.37,2013-08-31 09:42:00,
2013-08-31 11:47:00,67.6,54.2,30.21,WSW,248,6.9,6.9,62,0.00,,,0.00,WeatherDisplay:10.37,2013-08-31 09:47:00,
2013-08-31 11:53:00,68.2,54.2,30.21,ENE,68,9.2,9.2,61,0.00,,,0.00,WeatherDisplay:10.37,2013-08-31 09:53:00,
2013-08-31 11:58:00,68.4,54.4,30.21,WSW,248,4.6,4.6,61,0.00,,,0.00,WeatherDisplay:10.37,2013-08-31 09:58:00,
2013-08-31 12:03:00,68.2,53.8,30.21,NE,45,5.8,5.8,60,0.00,,,0.00,WeatherDisplay:10.37,2013-08-31 10:03:00,
2013-08-31 12:08:00,68.2,53.8,30.21,NE,45,5.8,5.8,60,0.00,,,0.00,WeatherDisplay:10.37,2013-08-31 10:08:00,
2013-08-31 12:13:00,69.1,54.6,30.21,NNE,22,5.8,5.8,60,0.00,,,0.00,WeatherDisplay:10.37,2013-08-31 10:13:00,
2013-08-31 12:18:00,68.5,53.6,30.21,NNE,22,2.3,2.4,59,0.00,,,0.00,WeatherDisplay:10.37,2013-08-31 10:18:00,
2013-08-31 12:23:00,66.9,52.6,30.21,North,0,1.1,2.5,60,0.00,,,0.00,WeatherDisplay:10.37,2013-08-31 10:23:00,
2013-08-31 12:28:00,68.2,54.2,30.22,North,0,4.6,4.6,61,0.00,,,0.00,WeatherDisplay:10.37,2013-08-31 10:28:00,
2013-08-31 12:33:00,68.7,53.8,30.22,NE,45,6.9,6.9,59,0.00,,,0.00,WeatherDisplay:10.37,2013-08-31 10:33:00,
2013-08-31 12:38:00,68.7,53.8,30.22,NW,315,5.2,5.2,59,0.00,,,0.00,WeatherDisplay:10.37,2013-08-31 10:38:00,
2013-08-31 12:43:00,68.9,53.5,30.22,NW,315,5.8,5.8,58,0.00,,,0.00,WeatherDisplay:10.37,2013-08-31 10:43:00,
2013-08-31 12:48:00,68.5,53.6,30.22,NNE,22,5.8,5.8,59,0.00,,,0.00,WeatherDisplay:10.37,2013-08-31 10:48:00,
2013-08-31 12:53:00,68.0,53.1,30.22,North,0,6.9,6.9,59,0.00,,,0.00,WeatherDisplay:10.37,2013-08-31 10:53:00,
2013-08-31 12:58:00,67.8,53.4,30.22,NNE,22,5.8,5.8,60,0.00,,,0.00,WeatherDisplay:10.37,2013-08-31 10:58:00,
2013-08-31 13:03:00,68.5,54.6,30.22,ESE,112,4.6,4.6,61,0.00,,,0.00,WeatherDisplay:10.37,2013-08-31 11:03:00,
2013-08-31 13:08:00,68.9,54.4,30.22,West,270,6.9,6.9,60,0.00,,,0.00,WeatherDisplay:10.37,2013-08-31 11:08:00,
2013-08-31 13:13:00,69.1,54.6,30.22,NE,45,3.5,3.5,60,0.00,,,0.00,WeatherDisplay:10.37,2013-08-31 11:13:00,
2013-08-31 13:18:00,68.7,54.7,30.22,NNW,338,9.2,9.2,61,0.00,,,0.00,WeatherDisplay:10.37,2013-08-31 11:18:00,
2013-08-31 13:23:00,68.5,55.0,30.22,North,0,3.5,4.4,62,0.00,,,0.00,WeatherDisplay:10.37,2013-08-31 11:23:00,
2013-08-31 13:28:00,69.1,56.0,30.23,North,0,4.6,4.6,63,0.00,,,0.00,WeatherDisplay:10.37,2013-08-31 11:28:00,
2013-08-31 13:33:00,69.4,56.3,30.23,NNE,22,2.3,3.7,63,0.00,,,0.00,WeatherDisplay:10.37,2013-08-31 11:33:00,
2013-08-31 13:38:00,68.5,55.4,30.23,NW,315,5.8,5.8,63,0.00,,,0.00,WeatherDisplay:10.37,2013-08-31 11:38:00,
2013-08-31 13:43:00,68.0,55.4,30.23,NW,315,11.5,11.5,64,0.00,,,0.00,WeatherDisplay:10.37,2013-08-31 11:43:00,
2013-08-31 13:48:00,68.4,55.7,30.23,NNE,22,3.5,4.3,64,0.00,,,0.00,WeatherDisplay:10.37,2013-08-31 11:48:00,
2013-08-31 13:53:00,69.3,56.1,30.23,NNE,22,4.6,4.6,63,0.00,,,0.00,WeatherDisplay:10.37,2013-08-31 11:53:00,
2013-08-31 13:58:00,69.4,55.9,30.23,NNE,22,7.2,7.2,62,0.00,,,0.00,WeatherDisplay:10.37,2013-08-31 11:58:00,
2013-08-31 14:03:00,68.4,54.8,30.23,NNE,22,10.4,10.4,62,0.00,,,0.00,WeatherDisplay:10.37,2013-08-31 12:03:00,
2013-08-31 14:08:00,68.0,53.6,30.24,West,270,2.3,4.3,60,0.00,,,0.00,WeatherDisplay:10.37,2013-08-31 12:08:00,
2013-08-31 14:13:00,67.1,52.7,30.24,SE,135,3.5,3.5,60,0.00,,,0.00,WeatherDisplay:10.37,2013-08-31 12:13:00,
2013-08-31 14:18:00,66.4,51.6,30.24,SE,135,5.8,5.8,59,0.00,,,0.00,WeatherDisplay:10.37,2013-08-31 12:18:00,
2013-08-31 14:23:00,66.0,51.7,30.24,NNE,22,2.4,2.6,60,0.00,,,0.00,WeatherDisplay:10.37,2013-08-31 12:23:00,
2013-08-31 14:28:00,66.4,52.1,30.23,East,90,3.9,3.9,60,0.00,,,0.00,WeatherDisplay:10.37,2013-08-31 12:28:00,
2013-08-31 14:33:00,66.4,51.6,30.23,West,270,3.5,3.5,59,0.00,,,0.00,WeatherDisplay:10.37,2013-08-31 12:33:00,
2013-08-31 14:38:00,66.0,51.3,30.23,South,180,3.5,3.5,59,0.00,,,0.00,WeatherDisplay:10.37,2013-08-31 12:38:00,
2013-08-31 14:43:00,65.8,51.1,30.23,North,0,3.5,3.5,59,0.00,,,0.00,WeatherDisplay:10.37,2013-08-31 12:43:00,
2013-08-31 14:48:00,66.0,51.7,30.24,WNW,292,5.5,5.5,60,0.00,,,0.00,WeatherDisplay:10.37,2013-08-31 12:48:00,
2013-08-31 14:53:00,66.0,51.3,30.24,North,0,6.9,6.9,59,0.00,,,0.00,WeatherDisplay:10.37,2013-08-31 12:53:00,
2013-08-31 14:58:00,65.7,50.9,30.24,NE,45,4.6,4.6,59,0.00,,,0.00,WeatherDisplay:10.37,2013-08-31 12:58:00,
2013-08-31 15:03:00,65.7,50.9,30.24,NW,315,4.6,4.6,59,0.00,,,0.00,WeatherDisplay:10.37,2013-08-31 13:03:00,
2013-08-31 15:08:00,65.8,50.6,30.25,NNE,22,6.9,6.9,58,0.00,,,0.00,WeatherDisplay:10.37,2013-08-31 13:08:00,
2013-08-31 15:13:00,65.8,50.6,30.25,West,270,6.9,6.9,58,0.00,,,0.00,WeatherDisplay:10.37,2013-08-31 13:13:00,
2013-08-31 15:18:00,66.0,50.8,30.25,North,0,2.3,3.5,58,0.00,,,0.00,WeatherDisplay:10.37,2013-08-31 13:18:00,
2013-08-31 15:23:00,66.0,50.3,30.25,WSW,248,8.1,8.1,57,0.00,,,0.00,WeatherDisplay:10.37,2013-08-31 13:23:00,
2013-08-31 15:28:00,66.6,50.8,30.26,NE,45,8.1,8.1,57,0.00,,,0.00,WeatherDisplay:10.37,2013-08-31 13:28:00,
2013-08-31 15:33:00,66.6,50.8,30.26,West,270,10.4,10.4,57,0.00,,,0.00,WeatherDisplay:10.37,2013-08-31 13:33:00,
2013-08-31 15:38:00,66.0,49.9,30.26,ESE,112,4.6,4.6,56,0.00,,,0.00,WeatherDisplay:10.37,2013-08-31 13:38:00,
2013-08-31 15:43:00,66.0,50.3,30.26,ESE,112,5.8,5.8,57,0.00,,,0.00,WeatherDisplay:10.37,2013-08-31 13:43:00,
2013-08-31 15:48:00,66.4,50.2,30.25,NW,315,3.5,4.0,56,0.00,,,0.00,WeatherDisplay:10.37,2013-08-31 13:48:00,
2013-08-31 15:53:00,66.0,49.9,30.25,NNE,22,4.6,4.6,56,0.00,,,0.00,WeatherDisplay:10.37,2013-08-31 13:53:00,
2013-08-31 15:58:00,65.8,49.7,30.25,West,270,4.9,4.9,56,0.00,,,0.00,WeatherDisplay:10.37,2013-08-31 13:58:00,
2013-08-31 16:03:00,65.5,48.9,30.25,SE,135,4.6,4.6,55,0.00,,,0.00,WeatherDisplay:10.37,2013-08-31 14:03:00,
2013-08-31 16:08:00,65.3,49.2,30.26,NNE,22,4.5,4.5,56,0.00,,,0.00,WeatherDisplay:10.37,2013-08-31 14:08:00,
2013-08-31 16:13:00,65.5,49.4,30.26,North,0,7.0,7.0,56,0.00,,,0.00,WeatherDisplay:10.37,2013-08-31 14:13:00,
2013-08-31 16:18:00,65.3,49.2,30.26,NNW,338,6.9,6.9,56,0.00,,,0.00,WeatherDisplay:10.37,2013-08-31 14:18:00,
2013-08-31 16:23:00,65.1,49.0,30.26,NNW,338,4.6,4.6,56,0.00,,,0.00,WeatherDisplay:10.37,2013-08-31 14:23:00,
2013-08-31 16:28:00,65.1,49.0,30.26,NNW,338,3.5,3.5,56,0.00,,,0.00,WeatherDisplay:10.37,2013-08-31 14:28:00,
2013-08-31 16:33:00,64.9,48.9,30.26,ENE,68,3.5,3.5,56,0.00,,,0.00,WeatherDisplay:10.37,2013-08-31 14:33:00,
2013-08-31 16:38:00,64.9,48.9,30.26,NE,45,3.5,3.5,56,0.00,,,0.00,WeatherDisplay:10.37,2013-08-31 14:38:00,
2013-08-31 16:43:00,64.9,48.4,30.26,NE,45,5.8,5.8,55,0.00,,,0.00,WeatherDisplay:10.37,2013-08-31 14:43:00,
2013-08-31 16:48:00,65.1,48.5,30.26,NNW,338,4.7,4.7,55,0.00,,,0.00,WeatherDisplay:10.37,2013-08-31 14:48:00,
2013-08-31 16:53:00,65.1,48.5,30.26,NW,315,5.9,5.9,55,0.00,,,0.00,WeatherDisplay:10.37,2013-08-31 14:53:00,
2013-08-31 16:58:00,64.8,47.7,30.26,NE,45,4.6,4.6,54,0.00,,,0.00,WeatherDisplay:10.37,2013-08-31 14:58:00,
2013-08-31 17:03:00,64.6,47.6,30.26,NNE,22,3.5,3.5,54,0.00,,,0.00,WeatherDisplay:10.37,2013-08-31 15:03:00,
2013-08-31 17:09:00,64.6,47.1,30.26,North,0,3.5,3.5,53,0.00,,,0.00,WeatherDisplay:10.37,2013-08-31 15:09:00,
2013-08-31 17:14:00,64.8,47.2,30.26,ENE,68,8.1,8.1,53,0.00,,,0.00,WeatherDisplay:10.37,2013-08-31 15:14:00,
2013-08-31 17:19:00,64.6,47.1,30.26,SSE,158,4.0,4.0,53,0.00,,,0.00,WeatherDisplay:10.37,2013-08-31 15:19:00,
2013-08-31 17:24:00,64.6,47.6,30.26,WNW,292,2.3,2.8,54,0.00,,,0.00,WeatherDisplay:10.37,2013-08-31 15:24:00,
2013-08-31 17:29:00,64.8,47.7,30.28,WSW,248,5.5,5.5,54,0.00,,,0.00,WeatherDisplay:10.37,2013-08-31 15:29:00,
2013-08-31 17:34:00,64.6,48.0,30.28,NNE,22,2.3,2.3,55,0.00,,,0.00,WeatherDisplay:10.37,2013-08-31 15:34:00,
2013-08-31 17:39:00,64.4,47.4,30.28,NE,45,2.6,2.6,54,0.00,,,0.00,WeatherDisplay:10.37,2013-08-31 15:39:00,
2013-08-31 17:44:00,64.2,47.2,30.28,NNE,22,9.2,9.2,54,0.00,,,0.00,WeatherDisplay:10.37,2013-08-31 15:44:00,
2013-08-31 17:49:00,64.4,47.4,30.28,West,270,3.5,3.5,54,0.00,,,0.00,WeatherDisplay:10.37,2013-08-31 15:49:00,
2013-08-31 17:54:00,64.4,47.9,30.28,NE,45,6.9,6.9,55,0.00,,,0.00,WeatherDisplay:10.37,2013-08-31 15:54:00,
2013-08-31 17:59:00,64.2,47.7,30.28,NE,45,6.9,6.9,55,0.00,,,0.00,WeatherDisplay:10.37,2013-08-31 15:59:00,
2013-08-31 18:04:00,64.0,47.1,30.28,South,180,1.1,2.9,54,0.00,,,0.00,WeatherDisplay:10.37,2013-08-31 16:04:00,
2013-08-31 18:09:00,63.7,47.2,30.28,NNW,338,6.9,6.9,55,0.00,,,0.00,WeatherDisplay:10.37,2013-08-31 16:09:00,
2013-08-31 18:14:00,63.7,47.2,30.28,North,0,6.9,6.9,55,0.00,,,0.00,WeatherDisplay:10.37,2013-08-31 16:14:00,
2013-08-31 18:19:00,63.7,48.2,30.28,West,270,6.9,6.9,57,0.00,,,0.00,WeatherDisplay:10.37,2013-08-31 16:19:00,
2013-08-31 18:24:00,63.9,48.8,30.28,WNW,292,2.3,3.5,58,0.00,,,0.00,WeatherDisplay:10.37,2013-08-31 16:24:00,
2013-08-31 18:29:00,63.9,48.3,30.29,NNE,22,4.9,4.9,57,0.00,,,0.00,WeatherDisplay:10.37,2013-08-31 16:29:00,
2013-08-31 18:34:00,63.7,48.2,30.29,NNE,22,6.9,6.9,57,0.00,,,0.00,WeatherDisplay:10.37,2013-08-31 16:34:00,
2013-08-31 18:39:00,63.7,48.2,30.29,NNW,338,9.2,9.2,57,0.00,,,0.00,WeatherDisplay:10.37,2013-08-31 16:39:00,
2013-08-31 18:44:00,63.3,47.8,30.29,NNE,22,3.5,3.6,57,0.00,,,0.00,WeatherDisplay:10.37,2013-08-31 16:44:00,
2013-08-31 18:49:00,63.0,47.5,30.29,West,270,6.9,6.9,57,0.00,,,0.00,WeatherDisplay:10.37,2013-08-31 16:49:00,
2013-08-31 18:54:00,62.8,47.8,30.29,West,270,3.5,3.5,58,0.00,,,0.00,WeatherDisplay:10.37,2013-08-31 16:54:00,
2013-08-31 18:59:00,63.3,48.3,30.29,NNE,22,4.6,4.6,58,0.00,,,0.00,WeatherDisplay:10.37,2013-08-31 16:59:00,
2013-08-31 19:04:00,63.3,48.3,30.29,North,0,4.6,4.6,58,0.00,,,0.00,WeatherDisplay:10.37,2013-08-31 17:04:00,
2013-08-31 19:09:00,62.6,47.1,30.30,NNW,338,6.9,6.9,57,0.00,,,0.00,WeatherDisplay:10.37,2013-08-31 17:09:00,
2013-08-31 19:14:00,62.4,47.4,30.30,NNW,338,6.9,6.9,58,0.00,,,0.00,WeatherDisplay:10.37,2013-08-31 17:14:00,
2013-08-31 19:19:00,61.9,46.9,30.30,ENE,68,4.6,4.6,58,0.00,,,0.00,WeatherDisplay:10.37,2013-08-31 17:19:00,
2013-08-31 19:24:00,61.9,46.9,30.30,North,0,4.6,4.6,58,0.00,,,0.00,WeatherDisplay:10.37,2013-08-31 17:24:00,
2013-08-31 19:29:00,61.5,46.6,30.30,NE,45,3.6,3.6,58,0.00,,,0.00,WeatherDisplay:10.37,2013-08-31 17:29:00,
2013-08-31 19:34:00,61.3,46.4,30.30,NNE,22,4.6,4.6,58,0.00,,,0.00,WeatherDisplay:10.37,2013-08-31 17:34:00,
2013-08-31 19:39:00,61.2,46.7,30.30,SW,225,3.5,3.5,59,0.00,,,0.00,WeatherDisplay:10.37,2013-08-31 17:39:00,
2013-08-31 19:44:00,61.3,46.4,30.30,NNW,338,3.5,3.5,58,0.00,,,0.00,WeatherDisplay:10.37,2013-08-31 17:44:00,
2013-08-31 19:49:00,61.3,46.4,30.30,NNW,338,5.8,5.8,58,0.00,,,0.00,WeatherDisplay:10.37,2013-08-31 17:49:00,
2013-08-31 19:54:00,61.0,46.1,30.30,NNE,22,4.6,4.6,58,0.00,,,0.00,WeatherDisplay:10.37,2013-08-31 17:54:00,
2013-08-31 19:59:00,60.8,45.9,30.30,NNW,338,4.9,4.9,58,0.00,,,0.00,WeatherDisplay:10.37,2013-08-31 17:59:00,
2013-08-31 20:04:00,60.6,45.8,30.30,NNE,22,2.3,3.0,58,0.00,,,0.00,WeatherDisplay:10.37,2013-08-31 18:04:00,